createdAt,value
2023-05-23T00:01:30.720Z,14.95
2023-05-23T00:03:57.087Z,14.84
2023-05-23T00:06:24.217Z,14.89
2023-05-23T00:08:50.722Z,14.84
2023-05-23T00:11:18.723Z,14.91
2023-05-23T00:13:45.073Z,14.88
2023-05-23T00:16:11.393Z,14.83
2023-05-23T00:18:39.494Z,14.83
2023-05-23T00:21:05.904Z,14.83
2023-05-23T00:23:33.229Z,14.78
2023-05-23T00:25:59.634Z,14.82
2023-05-23T00:28:26.428Z,14.78
2023-05-23T00:30:52.801Z,14.73
2023-05-23T00:33:21.286Z,14.77
2023-05-23T00:35:47.694Z,14.75
2023-05-23T00:38:14.247Z,14.76
2023-05-23T00:40:41.216Z,14.78
2023-05-23T00:43:07.881Z,14.77
2023-05-23T00:45:34.256Z,14.81
2023-05-23T00:48:02.403Z,14.82
2023-05-23T00:50:29.471Z,14.78
2023-05-23T00:52:57.414Z,14.82
2023-05-23T00:55:24.139Z,14.86
2023-05-23T00:57:53.810Z,14.91
2023-05-23T01:00:20.875Z,14.91
2023-05-23T01:02:50.649Z,14.97
2023-05-23T01:05:17.980Z,15.01
2023-05-23T01:07:44.756Z,15.04
2023-05-23T01:10:12.025Z,15.10
2023-05-23T01:12:45.984Z,15.11
2023-05-23T01:15:16.323Z,15.11
2023-05-23T01:17:50.046Z,15.07
2023-05-23T01:20:19.653Z,15.06
2023-05-23T01:23:13.548Z,15.12
2023-05-23T01:25:50.123Z,15.13
2023-05-23T01:28:21.609Z,15.08
2023-05-23T01:30:51.582Z,15.16
2023-05-23T01:33:20.117Z,15.15
2023-05-23T01:35:46.940Z,15.21
2023-05-23T01:38:16.159Z,15.27
2023-05-23T01:40:42.579Z,15.33
2023-05-23T01:43:09.110Z,15.28
2023-05-23T01:45:36.848Z,15.37
2023-05-23T01:48:05.644Z,15.42
2023-05-23T01:50:32.514Z,15.45
2023-05-23T01:52:59.824Z,15.51
2023-05-23T01:55:27.074Z,15.53
2023-05-23T01:57:55.772Z,15.59
2023-05-23T02:00:22.763Z,15.55
2023-05-23T02:02:49.865Z,15.58
2023-05-23T02:05:16.504Z,15.63
2023-05-23T02:07:42.845Z,15.59
2023-05-23T02:10:09.898Z,15.66
2023-05-23T02:12:36.230Z,15.55
2023-05-23T02:15:02.684Z,15.56
2023-05-23T02:17:29.972Z,15.47
2023-05-23T02:19:57.059Z,15.48
2023-05-23T02:22:24.148Z,15.51
2023-05-23T02:24:50.661Z,15.47
2023-05-23T02:27:17.235Z,15.33
2023-05-23T02:29:46.232Z,15.37
2023-05-23T02:32:12.572Z,15.35
2023-05-23T02:34:46.053Z,15.30
2023-05-23T02:37:13.639Z,15.24
2023-05-23T02:39:40.041Z,15.23
2023-05-23T02:42:07.068Z,15.15
2023-05-23T02:44:33.402Z,15.11
2023-05-23T02:46:59.734Z,15.05
2023-05-23T02:49:26.055Z,15.04
2023-05-23T02:51:52.509Z,14.97
2023-05-23T02:54:19.527Z,14.91
2023-05-23T02:56:46.151Z,14.79
2023-05-23T02:59:12.932Z,14.80
2023-05-23T03:01:39.344Z,14.82
2023-05-23T03:04:05.845Z,14.81
2023-05-23T03:06:33.285Z,14.75
2023-05-23T03:09:00.633Z,14.72
2023-05-23T03:11:29.098Z,14.70
2023-05-23T03:13:55.440Z,14.64
2023-05-23T03:16:22.253Z,14.63
2023-05-23T03:18:48.751Z,14.59
2023-05-23T03:21:15.050Z,14.55
2023-05-23T03:23:41.364Z,14.58
2023-05-23T03:26:07.728Z,14.56
2023-05-23T03:28:34.710Z,14.61
2023-05-23T03:31:01.239Z,14.60
2023-05-23T03:33:27.643Z,14.56
2023-05-23T03:35:54.001Z,14.57
2023-05-23T03:38:20.541Z,14.57
2023-05-23T03:40:47.669Z,14.63
2023-05-23T03:43:14.007Z,14.57
2023-05-23T03:45:41.376Z,14.55
2023-05-23T03:48:08.073Z,14.59
2023-05-23T03:50:34.418Z,14.69
2023-05-23T03:53:03.399Z,14.74
2023-05-23T03:55:31.734Z,14.79
2023-05-23T03:57:58.059Z,14.87
2023-05-23T04:00:24.367Z,14.92
2023-05-23T04:02:53.172Z,14.86
2023-05-23T04:05:19.595Z,14.95
2023-05-23T04:07:45.953Z,14.95
2023-05-23T04:10:12.318Z,14.98
2023-05-23T04:12:40.851Z,15.00
2023-05-23T04:15:08.579Z,15.00
2023-05-23T04:17:34.900Z,15.04
2023-05-23T04:20:01.960Z,15.15
2023-05-23T04:22:28.279Z,15.19
2023-05-23T04:24:54.977Z,15.20
2023-05-23T04:27:21.846Z,15.24
2023-05-23T04:29:48.422Z,15.31
2023-05-23T04:32:16.095Z,15.35
2023-05-23T04:34:43.553Z,15.37
2023-05-23T04:37:10.980Z,15.40
2023-05-23T04:39:37.803Z,15.37
2023-05-23T04:42:06.606Z,15.39
2023-05-23T04:44:32.947Z,15.40
2023-05-23T04:47:01.891Z,15.45
2023-05-23T04:49:28.673Z,15.45
2023-05-23T04:51:55.013Z,15.52
2023-05-23T04:54:24.741Z,15.55
2023-05-23T04:56:51.254Z,15.59
2023-05-23T04:59:17.604Z,15.60
2023-05-23T05:01:44.018Z,15.61
2023-05-23T05:04:12.551Z,15.60
2023-05-23T05:06:43.808Z,15.66
2023-05-23T05:09:10.152Z,15.75
2023-05-23T05:11:37.134Z,15.83
2023-05-23T05:14:03.492Z,15.83
2023-05-23T05:16:31.127Z,15.94
2023-05-23T05:18:57.609Z,16.04
2023-05-23T05:21:23.992Z,16.07
2023-05-23T05:23:51.772Z,16.15
2023-05-23T05:26:18.211Z,16.23
2023-05-23T05:28:45.234Z,16.28
2023-05-23T05:31:14.543Z,16.45
2023-05-23T05:33:41.064Z,16.53
2023-05-23T05:36:07.667Z,16.61
2023-05-23T05:38:34.007Z,16.63
2023-05-23T05:41:00.510Z,16.72
2023-05-23T05:43:26.834Z,16.80
2023-05-23T05:45:53.890Z,16.91
2023-05-23T05:48:20.338Z,17.00
2023-05-23T05:50:46.763Z,17.04
2023-05-23T05:53:13.503Z,17.15
2023-05-23T05:55:39.932Z,17.18
2023-05-23T05:58:06.331Z,17.29
2023-05-23T06:00:41.252Z,17.60
2023-05-23T06:03:12.020Z,17.76
2023-05-23T06:05:39.027Z,17.84
2023-05-23T06:08:05.636Z,18.07
2023-05-23T06:10:32.064Z,18.15
2023-05-23T06:12:58.835Z,17.99
2023-05-23T06:15:25.254Z,17.86
2023-05-23T06:17:51.956Z,17.89
2023-05-23T06:20:18.919Z,17.94
2023-05-23T06:22:45.479Z,18.04
2023-05-23T06:25:11.840Z,18.13
2023-05-23T06:27:38.297Z,18.20
2023-05-23T06:30:05.956Z,18.24
2023-05-23T06:32:32.383Z,18.31
2023-05-23T06:34:58.774Z,18.31
2023-05-23T06:37:25.830Z,18.33
2023-05-23T06:39:52.237Z,18.40
2023-05-23T06:42:18.619Z,18.58
2023-05-23T06:44:44.978Z,18.76
2023-05-23T06:47:11.333Z,18.89
2023-05-23T06:49:37.651Z,18.74
2023-05-23T06:52:04.346Z,18.60
2023-05-23T06:54:32.447Z,18.49
2023-05-23T06:56:58.891Z,18.28
2023-05-23T06:59:25.229Z,18.40
2023-05-23T07:01:51.597Z,18.57
2023-05-23T07:04:17.968Z,18.55
2023-05-23T07:06:47.903Z,18.74
2023-05-23T07:09:14.301Z,18.88
2023-05-23T07:11:44.375Z,19.11
2023-05-23T07:14:10.762Z,19.14
2023-05-23T07:16:42.833Z,19.43
2023-05-23T07:19:09.325Z,19.66
2023-05-23T07:21:35.739Z,19.74
2023-05-23T07:24:02.085Z,19.86
2023-05-23T07:26:30.417Z,19.94
2023-05-23T07:28:58.089Z,19.88
2023-05-23T07:31:24.688Z,19.68
2023-05-23T07:33:51.171Z,19.79
2023-05-23T07:36:22.894Z,19.91
2023-05-23T07:38:49.267Z,19.94
2023-05-23T07:41:15.605Z,20.08
2023-05-23T07:43:41.952Z,20.46
2023-05-23T07:46:09.107Z,20.60
2023-05-23T07:48:35.517Z,20.41
2023-05-23T07:51:01.920Z,20.09
2023-05-23T07:53:28.294Z,20.02
2023-05-23T07:55:54.678Z,20.11
2023-05-23T07:58:22.455Z,20.21
2023-05-23T08:00:51.807Z,20.04
2023-05-23T08:03:19.888Z,20.05
2023-05-23T08:05:46.927Z,20.09
2023-05-23T08:08:13.329Z,20.23
2023-05-23T08:10:39.930Z,20.17
2023-05-23T08:13:07.359Z,20.32
2023-05-23T08:15:33.720Z,20.30
2023-05-23T08:18:00.232Z,20.41
2023-05-23T08:20:30.617Z,20.31
2023-05-23T08:22:58.221Z,20.46
2023-05-23T08:25:29.543Z,20.34
2023-05-23T08:27:56.841Z,20.08
2023-05-23T08:30:24.666Z,19.84
2023-05-23T08:32:52.377Z,19.77
2023-05-23T08:35:18.808Z,19.76
2023-05-23T08:37:45.897Z,19.81
2023-05-23T08:40:17.340Z,20.06
2023-05-23T08:42:43.968Z,20.20
2023-05-23T08:45:10.709Z,20.03
2023-05-23T08:47:38.287Z,19.93
2023-05-23T08:50:06.969Z,19.58
2023-05-23T08:52:34.849Z,19.46
2023-05-23T08:55:02.050Z,20.07
2023-05-23T08:57:29.780Z,20.45
2023-05-23T08:59:57.644Z,20.50
2023-05-23T09:02:24.622Z,20.24
2023-05-23T09:04:51.068Z,20.33
2023-05-23T09:07:19.298Z,20.25
2023-05-23T09:09:47.603Z,20.16
2023-05-23T09:12:15.074Z,20.02
2023-05-23T09:14:43.933Z,19.69
2023-05-23T09:17:10.298Z,19.94
2023-05-23T09:19:40.856Z,20.11
2023-05-23T09:22:07.233Z,20.52
2023-05-23T09:24:34.500Z,20.86
2023-05-23T09:27:01.161Z,21.00
2023-05-23T09:29:28.143Z,21.24
2023-05-23T09:32:00.024Z,21.21
2023-05-23T09:34:27.437Z,21.21
2023-05-23T09:36:55.192Z,21.39
2023-05-23T09:39:21.575Z,21.26
2023-05-23T09:41:48.498Z,21.35
2023-05-23T09:46:41.674Z,21.10
2023-05-23T09:49:17.731Z,20.92
2023-05-23T09:51:44.719Z,21.25
2023-05-23T09:54:11.084Z,21.31
2023-05-23T09:56:42.886Z,21.11
2023-05-23T09:59:13.436Z,20.97
2023-05-23T10:01:41.951Z,20.43
2023-05-23T10:04:09.526Z,20.12
2023-05-23T10:06:42.221Z,19.70
2023-05-23T10:09:14.667Z,19.75
2023-05-23T10:12:28.650Z,19.71
2023-05-23T10:14:57.853Z,20.14
2023-05-23T10:17:32.670Z,20.24
2023-05-23T10:20:07.654Z,20.24
2023-05-23T10:22:35.484Z,20.45
2023-05-23T10:25:02.899Z,20.79
2023-05-23T10:27:29.707Z,20.65
2023-05-23T10:29:57.054Z,20.71
2023-05-23T10:32:24.501Z,20.63
2023-05-23T10:34:59.138Z,20.49
2023-05-23T10:37:34.491Z,20.03
2023-05-23T10:40:07.207Z,19.62
2023-05-23T10:42:45.745Z,19.65
2023-05-23T10:45:17.338Z,19.65
2023-05-23T10:47:43.780Z,19.72
2023-05-23T10:50:13.543Z,19.79
2023-05-23T10:52:40.967Z,19.71
2023-05-23T10:55:16.982Z,19.81
2023-05-23T10:57:44.278Z,19.73
2023-05-23T11:00:15.195Z,19.63
2023-05-23T11:02:53.893Z,19.75
2023-05-23T11:05:22.828Z,20.39
2023-05-23T11:08:07.412Z,21.38
2023-05-23T11:10:55.260Z,22.38
2023-05-23T11:13:22.532Z,22.51
2023-05-23T11:15:49.346Z,22.66
2023-05-23T11:18:24.003Z,23.33
2023-05-23T11:20:54.992Z,22.94
2023-05-23T11:23:22.347Z,23.19
2023-05-23T11:25:50.364Z,23.31
2023-05-23T11:28:17.061Z,23.55
2023-05-23T11:30:48.175Z,23.78
2023-05-23T11:33:15.735Z,24.09
2023-05-23T11:35:45.823Z,23.58
2023-05-23T11:38:14.528Z,23.72
2023-05-23T11:40:42.901Z,24.11
2023-05-23T11:43:10.783Z,23.88
2023-05-23T11:45:39.000Z,23.95
2023-05-23T11:48:06.894Z,24.54
2023-05-23T11:50:33.713Z,24.76
2023-05-23T11:53:00.429Z,25.13
2023-05-23T11:55:27.652Z,25.52
2023-05-23T11:57:56.000Z,24.49
2023-05-23T12:00:22.332Z,25.02
2023-05-23T12:02:48.778Z,24.94
2023-05-23T12:05:15.290Z,25.55
2023-05-23T12:07:42.189Z,26.20
2023-05-23T12:10:10.244Z,25.93
2023-05-23T12:12:40.693Z,25.44
2023-05-23T12:15:08.890Z,24.34
2023-05-23T12:17:36.515Z,23.60
2023-05-23T12:20:04.044Z,23.06
2023-05-23T12:22:30.737Z,22.94
2023-05-23T12:24:57.242Z,23.33
2023-05-23T12:27:29.209Z,23.65
2023-05-23T12:30:06.114Z,23.72
2023-05-23T12:32:32.719Z,23.48
2023-05-23T12:34:59.182Z,22.90
2023-05-23T12:37:25.619Z,22.63
2023-05-23T12:39:52.000Z,22.72
2023-05-23T12:42:18.377Z,23.21
2023-05-23T12:44:45.336Z,23.30
2023-05-23T12:47:12.574Z,23.14
2023-05-23T12:49:38.970Z,23.05
2023-05-23T12:52:07.237Z,22.49
2023-05-23T12:54:36.188Z,22.12
2023-05-23T12:57:02.600Z,22.11
2023-05-23T12:59:28.964Z,21.96
2023-05-23T13:01:55.527Z,21.78
2023-05-23T13:04:22.668Z,21.82
2023-05-23T13:06:49.114Z,22.08
2023-05-23T13:09:15.596Z,22.50
2023-05-23T13:11:42.040Z,22.81
2023-05-23T13:14:08.412Z,22.78
2023-05-23T13:16:36.000Z,22.65
2023-05-23T13:19:02.399Z,22.42
2023-05-23T13:21:29.559Z,22.95
2023-05-23T13:23:55.912Z,22.84
2023-05-23T13:26:22.387Z,23.05
2023-05-23T13:28:48.809Z,23.09
2023-05-23T13:31:15.384Z,22.85
2023-05-23T13:33:41.804Z,22.73
2023-05-23T13:36:08.191Z,22.66
2023-05-23T13:38:35.268Z,22.42
2023-05-23T13:41:01.752Z,22.34
2023-05-23T13:43:28.178Z,22.18
2023-05-23T13:45:54.520Z,21.99
2023-05-23T13:48:20.880Z,22.15
2023-05-23T13:50:47.248Z,22.25
2023-05-23T13:53:16.082Z,22.10
2023-05-23T13:55:44.461Z,22.40
2023-05-23T13:58:11.251Z,22.29
2023-05-23T14:00:37.745Z,21.80
2023-05-23T14:03:04.304Z,20.99
2023-05-23T14:05:31.017Z,20.13
2023-05-23T14:07:57.505Z,19.85
2023-05-23T14:10:23.885Z,19.63
2023-05-23T14:12:50.950Z,19.22
2023-05-23T14:15:17.593Z,18.95
2023-05-23T14:17:44.020Z,18.70
2023-05-23T14:20:11.262Z,18.52
2023-05-23T14:22:39.381Z,18.47
2023-05-23T14:25:06.351Z,18.41
2023-05-23T14:27:33.285Z,18.54
2023-05-23T14:30:00.440Z,18.54
2023-05-23T14:32:26.901Z,18.73
2023-05-23T14:34:53.453Z,18.86
2023-05-23T14:37:19.895Z,19.13
2023-05-23T14:39:46.266Z,19.46
2023-05-23T14:42:12.631Z,19.72
2023-05-23T14:44:38.961Z,19.77
2023-05-23T14:47:06.243Z,19.71
2023-05-23T14:49:32.582Z,19.49
2023-05-23T14:51:59.181Z,19.28
2023-05-23T14:54:25.594Z,19.21
2023-05-23T14:56:53.092Z,18.90
2023-05-23T14:59:21.080Z,18.80
2023-05-23T15:01:47.561Z,18.76
2023-05-23T15:04:14.708Z,18.72
2023-05-23T15:06:42.161Z,18.70
2023-05-23T15:09:09.827Z,18.63
2023-05-23T15:11:37.968Z,18.57
2023-05-23T15:14:04.502Z,18.58
2023-05-23T15:16:32.250Z,18.62
2023-05-23T15:18:59.182Z,18.60
2023-05-23T15:21:26.189Z,18.51
2023-05-23T15:23:52.596Z,18.39
2023-05-23T15:26:18.916Z,18.25
2023-05-23T15:28:45.466Z,18.16
2023-05-23T15:31:11.878Z,18.03
2023-05-23T15:33:38.236Z,18.05
2023-05-23T15:36:04.914Z,18.08
2023-05-23T15:38:31.962Z,18.20
2023-05-23T15:40:59.503Z,18.36
2023-05-23T15:43:26.019Z,18.43
2023-05-23T15:45:52.784Z,18.54
2023-05-23T15:48:19.333Z,18.50
2023-05-23T15:50:45.728Z,18.49
2023-05-23T15:53:12.120Z,18.55
2023-05-23T15:55:41.869Z,18.53
2023-05-23T15:58:08.943Z,18.67
2023-05-23T16:00:35.300Z,18.60
2023-05-23T16:03:01.754Z,18.50
2023-05-23T16:05:29.588Z,18.49
2023-05-23T16:07:56.426Z,18.60
2023-05-23T16:10:23.845Z,18.72
2023-05-23T16:12:51.030Z,18.94
2023-05-23T16:15:17.435Z,19.02
2023-05-23T16:17:43.920Z,19.07
2023-05-23T16:20:11.058Z,19.10
2023-05-23T16:22:37.412Z,19.27
2023-05-23T16:25:05.970Z,19.46
2023-05-23T16:27:32.312Z,19.63
2023-05-23T16:29:59.346Z,19.71
2023-05-23T16:32:26.360Z,19.94
2023-05-23T16:34:54.598Z,20.02
2023-05-23T16:37:21.194Z,20.13
2023-05-23T16:39:47.591Z,20.12
2023-05-23T16:42:14.050Z,20.31
2023-05-23T16:44:40.404Z,20.03
2023-05-23T16:47:07.575Z,19.78
2023-05-23T16:49:33.945Z,19.63
2023-05-23T16:52:00.283Z,19.42
2023-05-23T16:54:26.679Z,19.21
2023-05-23T16:56:53.067Z,19.18
2023-05-23T16:59:19.475Z,19.13
2023-05-23T17:01:46.060Z,18.89
2023-05-23T17:04:13.261Z,18.87
2023-05-23T17:06:39.644Z,18.84
2023-05-23T17:09:06.051Z,18.85
2023-05-23T17:11:32.388Z,19.05
2023-05-23T17:13:58.854Z,19.03
2023-05-23T17:16:25.272Z,19.20
2023-05-23T17:18:52.084Z,19.08
2023-05-23T17:21:19.248Z,18.89
2023-05-23T17:23:46.257Z,18.72
2023-05-23T17:26:12.835Z,18.57
2023-05-23T17:28:39.198Z,18.40
2023-05-23T17:31:05.893Z,18.31
2023-05-23T17:33:32.279Z,18.21
2023-05-23T17:35:58.626Z,18.20
2023-05-23T17:38:26.124Z,18.23
2023-05-23T17:40:52.519Z,18.29
2023-05-23T17:43:18.961Z,18.21
2023-05-23T17:45:45.300Z,18.18
2023-05-23T17:48:11.702Z,18.14
2023-05-23T17:50:38.173Z,18.00
2023-05-23T17:53:05.557Z,17.92
2023-05-23T17:55:32.681Z,17.86
2023-05-23T17:57:59.032Z,17.80
2023-05-23T18:00:25.401Z,17.78
2023-05-23T18:02:51.987Z,17.76
2023-05-23T18:05:19.982Z,17.63
2023-05-23T18:07:48.784Z,17.49
2023-05-23T18:10:15.386Z,17.42
2023-05-23T18:12:42.465Z,17.33
2023-05-23T18:15:09.554Z,17.22
2023-05-23T18:17:36.095Z,17.20
2023-05-23T18:20:02.690Z,17.13
2023-05-23T18:22:30.962Z,17.09
2023-05-23T18:24:57.565Z,17.11
2023-05-23T18:27:23.946Z,17.02
2023-05-23T18:29:50.992Z,17.04
2023-05-23T18:32:17.439Z,17.10
2023-05-23T18:34:43.836Z,17.08
2023-05-23T18:37:10.206Z,17.03
2023-05-23T18:39:36.577Z,16.97
2023-05-23T18:42:03.049Z,16.95
2023-05-23T18:44:29.401Z,16.91
2023-05-23T18:46:56.484Z,16.91
2023-05-23T18:49:23.036Z,16.82
2023-05-23T18:51:50.963Z,16.79
2023-05-23T18:54:17.539Z,16.77
2023-05-23T18:56:43.947Z,16.73
2023-05-23T18:59:13.625Z,16.64
2023-05-23T19:01:40.011Z,16.56
2023-05-23T19:04:07.753Z,16.61
2023-05-23T19:06:34.253Z,16.53
2023-05-23T19:09:00.652Z,16.46
2023-05-23T19:11:27.328Z,16.40
2023-05-23T19:13:53.717Z,16.36
2023-05-23T19:16:20.424Z,16.34
2023-05-23T19:18:47.786Z,16.31
2023-05-23T19:21:15.598Z,16.30
2023-05-23T19:23:41.995Z,16.33
2023-05-23T19:26:09.472Z,16.25
2023-05-23T19:28:36.366Z,16.17
2023-05-23T19:31:02.738Z,16.17
2023-05-23T19:33:29.098Z,16.10
2023-05-23T19:35:55.484Z,16.05
2023-05-23T19:38:22.520Z,16.02
2023-05-23T19:40:48.883Z,16.02
2023-05-23T19:43:15.426Z,16.03
2023-05-23T19:45:41.935Z,16.01
2023-05-23T19:48:08.374Z,16.04
2023-05-23T19:50:34.733Z,15.96
2023-05-23T19:53:01.036Z,15.92
2023-05-23T19:55:28.053Z,15.85
2023-05-23T19:57:54.376Z,15.80
2023-05-23T20:00:20.877Z,15.70
2023-05-23T20:02:47.330Z,15.72
2023-05-23T20:05:13.737Z,15.62
2023-05-23T20:07:40.389Z,15.60
2023-05-23T20:10:07.668Z,15.62
2023-05-23T20:12:34.966Z,15.60
2023-05-23T20:15:01.697Z,15.68
2023-05-23T20:17:29.156Z,15.63
2023-05-23T20:19:55.554Z,15.60
2023-05-23T20:22:21.964Z,15.54
2023-05-23T20:24:48.321Z,15.49
2023-05-23T20:27:15.068Z,15.40
2023-05-23T20:29:42.077Z,15.33
2023-05-23T20:32:08.470Z,15.26
2023-05-23T20:34:35.813Z,15.20
2023-05-23T20:37:04.439Z,15.18
2023-05-23T20:39:30.845Z,15.14
2023-05-23T20:41:57.227Z,15.10
2023-05-23T20:44:23.956Z,15.05
2023-05-23T20:46:51.037Z,15.02
2023-05-23T20:49:20.588Z,14.99
2023-05-23T20:51:47.280Z,14.96
2023-05-23T20:54:13.712Z,14.89
2023-05-23T20:56:40.182Z,14.85
2023-05-23T20:59:07.354Z,14.86
2023-05-23T21:01:36.409Z,14.69
2023-05-23T21:04:03.589Z,14.67
2023-05-23T21:06:30.004Z,14.63
2023-05-23T21:08:56.355Z,14.58
2023-05-23T21:11:22.815Z,14.50
2023-05-23T21:13:49.187Z,14.39
2023-05-23T21:16:15.886Z,14.32
2023-05-23T21:18:42.285Z,14.26
2023-05-23T21:21:09.346Z,14.17
2023-05-23T21:23:35.738Z,14.08
2023-05-23T21:26:02.345Z,14.01
2023-05-23T21:28:28.678Z,13.93
2023-05-23T21:30:55.816Z,13.98
2023-05-23T21:33:22.282Z,13.94
2023-05-23T21:35:48.903Z,13.95
2023-05-23T21:38:15.970Z,13.92
2023-05-23T21:40:42.549Z,13.88
2023-05-23T21:43:10.224Z,13.95
2023-05-23T21:45:36.582Z,13.88
2023-05-23T21:48:03.100Z,13.90
2023-05-23T21:50:29.424Z,13.83
2023-05-23T21:52:55.803Z,13.89
2023-05-23T21:55:22.882Z,13.84
2023-05-23T21:57:49.269Z,13.80
2023-05-23T22:00:18.309Z,13.80
2023-05-23T22:02:44.836Z,13.76
2023-05-23T22:05:12.330Z,13.71
2023-05-23T22:07:39.022Z,13.74
2023-05-23T22:10:06.632Z,13.62
2023-05-23T22:12:33.676Z,13.55
2023-05-23T22:15:00.293Z,13.48
2023-05-23T22:17:26.754Z,13.44
2023-05-23T22:19:55.018Z,13.39
2023-05-23T22:22:21.344Z,13.33
2023-05-23T22:24:47.729Z,13.26
2023-05-23T22:27:14.135Z,13.20
2023-05-23T22:29:41.147Z,13.16
2023-05-23T22:32:07.530Z,13.08
2023-05-23T22:34:33.948Z,13.05
2023-05-23T22:37:00.936Z,13.10
2023-05-23T22:39:27.410Z,13.08
2023-05-23T22:41:53.811Z,13.10
2023-05-23T22:44:20.285Z,13.09
2023-05-23T22:46:47.386Z,13.10
2023-05-23T22:49:16.522Z,13.17
2023-05-23T22:57:47.481Z,13.05
2023-05-23T23:00:14.296Z,13.11
2023-05-23T23:02:40.752Z,13.12
2023-05-23T23:05:11.076Z,13.14
2023-05-23T23:07:37.601Z,13.13
2023-05-23T23:10:04.549Z,13.10
2023-05-23T23:12:30.870Z,13.12
2023-05-23T23:14:57.878Z,13.09
2023-05-23T23:17:24.423Z,13.13
2023-05-23T23:19:51.053Z,13.17
2023-05-23T23:22:17.956Z,13.17
2023-05-23T23:24:44.600Z,13.17
2023-05-23T23:27:10.962Z,13.16
2023-05-23T23:29:37.343Z,13.13
2023-05-23T23:32:05.182Z,13.11
2023-05-23T23:34:31.553Z,13.11
2023-05-23T23:36:57.889Z,13.05
2023-05-23T23:39:24.208Z,13.04
2023-05-23T23:41:50.611Z,13.01
2023-05-23T23:44:16.979Z,13.01
2023-05-23T23:46:43.451Z,13.01
2023-05-23T23:49:10.460Z,12.99
2023-05-23T23:51:36.810Z,13.03
2023-05-23T23:54:03.504Z,13.08
2023-05-23T23:56:29.886Z,13.05
2023-05-23T23:58:56.256Z,13.07
